sensor_id;sensor_type;location;lat;lon;timestamp;pressure;altitude;pressure_sealevel;temperature;humidity
3122;BME280;1571;52.524;14.104;2024-01-16T00:01:30;99470.03;;;-0.30;83.04
3122;BME280;1571;52.524;14.104;2024-01-16T00:03:58;99476.72;;;-0.23;83.54
3122;BME280;1571;52.524;14.104;2024-01-16T00:06:27;99466.38;;;-0.24;83.96
3122;BME280;1571;52.524;14.104;2024-01-16T00:08:57;99472.47;;;-0.25;83.87
3122;BME280;1571;52.524;14.104;2024-01-16T00:11:27;99473.34;;;-0.25;83.84
3122;BME280;1571;52.524;14.104;2024-01-16T00:13:56;99482.28;;;-0.32;84.42
3122;BME280;1571;52.524;14.104;2024-01-16T00:16:26;99479.84;;;-0.36;84.70
3122;BME280;1571;52.524;14.104;2024-01-16T00:18:54;99471.00;;;-0.32;83.93
3122;BME280;1571;52.524;14.104;2024-01-16T00:21:23;99468.59;;;-0.37;83.22
3122;BME280;1571;52.524;14.104;2024-01-16T00:23:51;99473.22;;;-0.45;83.02
3122;BME280;1571;52.524;14.104;2024-01-16T00:26:21;99470.69;;;-0.47;83.18
3122;BME280;1571;52.524;14.104;2024-01-16T00:28:50;99461.41;;;-0.54;82.53
3122;BME280;1571;52.524;14.104;2024-01-16T00:31:19;99464.44;;;-0.66;82.77
3122;BME280;1571;52.524;14.104;2024-01-16T00:33:47;99464.28;;;-0.61;83.18
3122;BME280;1571;52.524;14.104;2024-01-16T00:36:15;99473.69;;;-0.81;84.16
3122;BME280;1571;52.524;14.104;2024-01-16T00:38:45;99482.88;;;-0.71;85.63
3122;BME280;1571;52.524;14.104;2024-01-16T00:41:13;99505.06;;;-0.84;86.08
3122;BME280;1571;52.524;14.104;2024-01-16T00:43:45;99496.34;;;-0.59;86.57
3122;BME280;1571;52.524;14.104;2024-01-16T00:46:13;99496.09;;;-0.52;86.52
3122;BME280;1571;52.524;14.104;2024-01-16T00:48:41;99510.59;;;-0.93;86.17
3122;BME280;1571;52.524;14.104;2024-01-16T00:51:10;99527.19;;;-1.21;86.72
3122;BME280;1571;52.524;14.104;2024-01-16T00:53:40;99535.69;;;-0.91;86.67
3122;BME280;1571;52.524;14.104;2024-01-16T00:56:08;99544.63;;;-0.98;86.91
3122;BME280;1571;52.524;14.104;2024-01-16T00:58:37;99552.78;;;-1.09;87.50
3122;BME280;1571;52.524;14.104;2024-01-16T01:01:06;99572.03;;;-1.13;87.35
3122;BME280;1571;52.524;14.104;2024-01-16T01:03:35;99573.91;;;-1.16;87.15
3122;BME280;1571;52.524;14.104;2024-01-16T01:06:04;99580.66;;;-1.11;86.95
3122;BME280;1571;52.524;14.104;2024-01-16T01:08:32;99578.84;;;-1.09;86.12
3122;BME280;1571;52.524;14.104;2024-01-16T01:11:01;99589.97;;;-1.03;85.96
3122;BME280;1571;52.524;14.104;2024-01-16T01:13:33;99578.69;;;-1.04;85.25
3122;BME280;1571;52.524;14.104;2024-01-16T01:16:01;99589.00;;;-0.74;84.81
3122;BME280;1571;52.524;14.104;2024-01-16T01:18:31;99587.22;;;-0.99;85.46
3122;BME280;1571;52.524;14.104;2024-01-16T01:20:59;99585.69;;;-0.79;85.68
3122;BME280;1571;52.524;14.104;2024-01-16T01:23:27;99602.41;;;-1.12;87.29
3122;BME280;1571;52.524;14.104;2024-01-16T01:25:56;99604.88;;;-1.35;88.76
3122;BME280;1571;52.524;14.104;2024-01-16T01:28:24;99600.69;;;-1.39;89.59
3122;BME280;1571;52.524;14.104;2024-01-16T01:30:52;99605.88;;;-1.68;90.97
3122;BME280;1571;52.524;14.104;2024-01-16T01:33:21;99606.44;;;-1.58;91.49
3122;BME280;1571;52.524;14.104;2024-01-16T01:35:51;99608.91;;;-1.81;92.48
3122;BME280;1571;52.524;14.104;2024-01-16T01:38:19;99617.41;;;-1.76;93.38
3122;BME280;1571;52.524;14.104;2024-01-16T01:40:47;99621.53;;;-1.69;94.14
3122;BME280;1571;52.524;14.104;2024-01-16T01:43:20;99629.19;;;-1.93;94.87
3122;BME280;1571;52.524;14.104;2024-01-16T01:45:56;99630.38;;;-1.73;95.79
3122;BME280;1571;52.524;14.104;2024-01-16T01:48:27;99621.06;;;-1.54;95.87
3122;BME280;1571;52.524;14.104;2024-01-16T01:50:57;99615.56;;;-1.71;95.77
3122;BME280;1571;52.524;14.104;2024-01-16T01:53:26;99628.53;;;-2.01;96.76
3122;BME280;1571;52.524;14.104;2024-01-16T01:55:55;99620.09;;;-1.78;97.11
3122;BME280;1571;52.524;14.104;2024-01-16T01:58:23;99620.38;;;-1.59;97.50
3122;BME280;1571;52.524;14.104;2024-01-16T02:00:52;99623.09;;;-1.62;97.74
3122;BME280;1571;52.524;14.104;2024-01-16T02:03:21;99626.81;;;-1.42;97.87
3122;BME280;1571;52.524;14.104;2024-01-16T02:05:51;99629.78;;;-1.27;97.96
3122;BME280;1571;52.524;14.104;2024-01-16T02:08:22;99627.84;;;-1.20;98.12
3122;BME280;1571;52.524;14.104;2024-01-16T02:10:50;99634.66;;;-1.16;97.76
3122;BME280;1571;52.524;14.104;2024-01-16T02:13:19;99638.16;;;-1.17;98.09
3122;BME280;1571;52.524;14.104;2024-01-16T02:15:50;99643.91;;;-1.34;98.64
3122;BME280;1571;52.524;14.104;2024-01-16T02:18:19;99641.09;;;-1.28;98.90
3122;BME280;1571;52.524;14.104;2024-01-16T02:20:47;99635.94;;;-1.29;99.14
3122;BME280;1571;52.524;14.104;2024-01-16T02:23:21;99634.34;;;-1.07;99.00
3122;BME280;1571;52.524;14.104;2024-01-16T02:25:54;99639.47;;;-1.03;98.90
3122;BME280;1571;52.524;14.104;2024-01-16T02:28:22;99650.09;;;-1.38;98.62
3122;BME280;1571;52.524;14.104;2024-01-16T02:30:50;99639.13;;;-1.48;99.28
3122;BME280;1571;52.524;14.104;2024-01-16T02:33:19;99642.91;;;-1.30;99.37
3122;BME280;1571;52.524;14.104;2024-01-16T02:35:47;99656.78;;;-1.29;99.06
3122;BME280;1571;52.524;14.104;2024-01-16T02:38:15;99658.13;;;-1.44;99.12
3122;BME280;1571;52.524;14.104;2024-01-16T02:40:45;99656.88;;;-1.32;98.78
3122;BME280;1571;52.524;14.104;2024-01-16T02:43:13;99652.69;;;-1.38;98.25
3122;BME280;1571;52.524;14.104;2024-01-16T02:45:42;99654.75;;;-1.48;98.07
3122;BME280;1571;52.524;14.104;2024-01-16T02:48:10;99663.53;;;-1.52;97.91
3122;BME280;1571;52.524;14.104;2024-01-16T02:50:39;99665.53;;;-1.60;97.78
3122;BME280;1571;52.524;14.104;2024-01-16T02:53:07;99655.38;;;-1.69;97.64
3122;BME280;1571;52.524;14.104;2024-01-16T02:55:35;99663.41;;;-1.77;97.27
3122;BME280;1571;52.524;14.104;2024-01-16T02:58:05;99668.22;;;-1.93;97.23
3122;BME280;1571;52.524;14.104;2024-01-16T03:00:33;99667.28;;;-1.92;97.19
3122;BME280;1571;52.524;14.104;2024-01-16T03:03:02;99670.00;;;-1.95;97.09
3122;BME280;1571;52.524;14.104;2024-01-16T03:05:30;99670.09;;;-1.98;97.32
3122;BME280;1571;52.524;14.104;2024-01-16T03:07:58;99670.34;;;-2.07;97.21
3122;BME280;1571;52.524;14.104;2024-01-16T03:10:29;99674.44;;;-2.29;97.35
3122;BME280;1571;52.524;14.104;2024-01-16T03:12:58;99676.97;;;-2.28;97.67
3122;BME280;1571;52.524;14.104;2024-01-16T03:15:27;99675.41;;;-2.34;98.09
3122;BME280;1571;52.524;14.104;2024-01-16T03:17:58;99691.97;;;-2.72;98.70
3122;BME280;1571;52.524;14.104;2024-01-16T03:20:27;99701.31;;;-2.99;99.76
3122;BME280;1571;52.524;14.104;2024-01-16T03:22:56;99707.66;;;-3.12;100.00
3122;BME280;1571;52.524;14.104;2024-01-16T03:25:24;99707.22;;;-3.31;100.00
3122;BME280;1571;52.524;14.104;2024-01-16T03:27:52;99705.13;;;-3.16;100.00
3122;BME280;1571;52.524;14.104;2024-01-16T03:30:21;99698.28;;;-2.82;99.37
3122;BME280;1571;52.524;14.104;2024-01-16T03:32:50;99704.97;;;-2.72;97.93
3122;BME280;1571;52.524;14.104;2024-01-16T03:35:19;99706.38;;;-2.95;97.60
3122;BME280;1571;52.524;14.104;2024-01-16T03:37:47;99706.50;;;-3.38;98.74
3122;BME280;1571;52.524;14.104;2024-01-16T03:40:16;99710.72;;;-3.34;99.27
3122;BME280;1571;52.524;14.104;2024-01-16T03:42:45;99708.78;;;-2.87;98.81
3122;BME280;1571;52.524;14.104;2024-01-16T03:45:13;99718.09;;;-3.16;98.54
3122;BME280;1571;52.524;14.104;2024-01-16T03:47:44;99737.09;;;-3.52;97.83
3122;BME280;1571;52.524;14.104;2024-01-16T03:50:14;99726.19;;;-3.29;98.34
3122;BME280;1571;52.524;14.104;2024-01-16T03:52:42;99746.53;;;-3.48;98.41
3122;BME280;1571;52.524;14.104;2024-01-16T03:55:10;99743.28;;;-3.19;97.77
3122;BME280;1571;52.524;14.104;2024-01-16T03:57:39;99750.69;;;-3.41;97.48
3122;BME280;1571;52.524;14.104;2024-01-16T04:00:08;99764.16;;;-3.66;98.64
3122;BME280;1571;52.524;14.104;2024-01-16T04:02:39;99764.50;;;-3.39;98.90
3122;BME280;1571;52.524;14.104;2024-01-16T04:05:07;99765.69;;;-3.56;98.76
3122;BME280;1571;52.524;14.104;2024-01-16T04:07:37;99776.97;;;-3.58;98.29
3122;BME280;1571;52.524;14.104;2024-01-16T04:10:07;99774.66;;;-3.72;98.27
3122;BME280;1571;52.524;14.104;2024-01-16T04:12:35;99775.38;;;-3.64;98.48
3122;BME280;1571;52.524;14.104;2024-01-16T04:15:04;99783.72;;;-3.49;97.38
3122;BME280;1571;52.524;14.104;2024-01-16T04:17:32;99775.91;;;-3.48;96.85
3122;BME280;1571;52.524;14.104;2024-01-16T04:20:00;99781.63;;;-3.32;97.67
3122;BME280;1571;52.524;14.104;2024-01-16T04:22:30;99779.75;;;-3.25;97.44
3122;BME280;1571;52.524;14.104;2024-01-16T04:24:59;99781.63;;;-3.30;96.86
3122;BME280;1571;52.524;14.104;2024-01-16T04:27:28;99779.59;;;-3.18;96.98
3122;BME280;1571;52.524;14.104;2024-01-16T04:29:56;99784.94;;;-3.24;96.76
3122;BME280;1571;52.524;14.104;2024-01-16T04:32:24;99785.59;;;-3.16;96.95
3122;BME280;1571;52.524;14.104;2024-01-16T04:34:52;99792.56;;;-3.18;96.77
3122;BME280;1571;52.524;14.104;2024-01-16T04:37:21;99785.47;;;-3.09;96.95
3122;BME280;1571;52.524;14.104;2024-01-16T04:39:49;99790.66;;;-3.09;97.17
3122;BME280;1571;52.524;14.104;2024-01-16T04:42:19;99793.28;;;-3.11;96.83
3122;BME280;1571;52.524;14.104;2024-01-16T04:44:47;99792.31;;;-3.05;96.92
3122;BME280;1571;52.524;14.104;2024-01-16T04:47:15;99797.50;;;-3.05;97.03
3122;BME280;1571;52.524;14.104;2024-01-16T04:49:43;99795.88;;;-3.11;97.04
3122;BME280;1571;52.524;14.104;2024-01-16T04:52:12;99802.22;;;-3.23;97.22
3122;BME280;1571;52.524;14.104;2024-01-16T04:54:40;99803.69;;;-3.11;97.84
3122;BME280;1571;52.524;14.104;2024-01-16T04:57:09;99817.97;;;-2.90;97.95
3122;BME280;1571;52.524;14.104;2024-01-16T04:59:38;99811.13;;;-2.94;97.84
3122;BME280;1571;52.524;14.104;2024-01-16T05:02:07;99816.09;;;-2.85;98.31
3122;BME280;1571;52.524;14.104;2024-01-16T05:04:36;99810.09;;;-2.87;98.19
3122;BME280;1571;52.524;14.104;2024-01-16T05:07:04;99824.50;;;-3.12;98.95
3122;BME280;1571;52.524;14.104;2024-01-16T05:09:33;99814.41;;;-2.86;99.70
3122;BME280;1571;52.524;14.104;2024-01-16T05:12:01;99810.63;;;-2.73;100.00
3122;BME280;1571;52.524;14.104;2024-01-16T05:14:29;99817.41;;;-2.65;100.00
3122;BME280;1571;52.524;14.104;2024-01-16T05:16:59;99829.72;;;-2.74;100.00
3122;BME280;1571;52.524;14.104;2024-01-16T05:19:27;99827.31;;;-2.83;100.00
3122;BME280;1571;52.524;14.104;2024-01-16T05:21:56;99818.50;;;-2.76;100.00
3122;BME280;1571;52.524;14.104;2024-01-16T05:24:24;99824.38;;;-2.67;100.00
3122;BME280;1571;52.524;14.104;2024-01-16T05:26:52;99832.28;;;-2.72;100.00
3122;BME280;1571;52.524;14.104;2024-01-16T05:29:21;99843.72;;;-2.81;100.00
3122;BME280;1571;52.524;14.104;2024-01-16T05:31:49;99843.00;;;-2.87;100.00
3122;BME280;1571;52.524;14.104;2024-01-16T05:34:19;99851.53;;;-2.81;100.00
3122;BME280;1571;52.524;14.104;2024-01-16T05:36:47;99850.84;;;-2.90;100.00
3122;BME280;1571;52.524;14.104;2024-01-16T05:39:15;99842.91;;;-2.83;100.00
3122;BME280;1571;52.524;14.104;2024-01-16T05:41:44;99847.41;;;-2.91;100.00
3122;BME280;1571;52.524;14.104;2024-01-16T05:44:12;99854.94;;;-2.79;100.00
3122;BME280;1571;52.524;14.104;2024-01-16T05:46:41;99855.97;;;-2.86;100.00
3122;BME280;1571;52.524;14.104;2024-01-16T05:49:09;99859.31;;;-2.81;100.00
3122;BME280;1571;52.524;14.104;2024-01-16T05:51:39;99860.06;;;-2.76;100.00
3122;BME280;1571;52.524;14.104;2024-01-16T05:54:07;99860.88;;;-2.74;100.00
3122;BME280;1571;52.524;14.104;2024-01-16T05:56:35;99862.53;;;-2.69;100.00
3122;BME280;1571;52.524;14.104;2024-01-16T05:59:04;99877.22;;;-2.68;100.00
3122;BME280;1571;52.524;14.104;2024-01-16T06:01:33;99878.16;;;-2.73;100.00
3122;BME280;1571;52.524;14.104;2024-01-16T06:04:01;99878.44;;;-2.85;100.00
3122;BME280;1571;52.524;14.104;2024-01-16T06:06:30;99878.28;;;-2.77;100.00
3122;BME280;1571;52.524;14.104;2024-01-16T06:08:59;99888.72;;;-2.79;100.00
3122;BME280;1571;52.524;14.104;2024-01-16T06:11:32;99890.81;;;-2.56;100.00
3122;BME280;1571;52.524;14.104;2024-01-16T06:14:01;99884.78;;;-2.58;100.00
3122;BME280;1571;52.524;14.104;2024-01-16T06:16:30;99887.25;;;-2.52;100.00
3122;BME280;1571;52.524;14.104;2024-01-16T06:18:58;99892.75;;;-2.65;100.00
3122;BME280;1571;52.524;14.104;2024-01-16T06:21:26;99889.66;;;-2.44;100.00
3122;BME280;1571;52.524;14.104;2024-01-16T06:23:55;99890.81;;;-2.18;100.00
3122;BME280;1571;52.524;14.104;2024-01-16T06:26:25;99885.44;;;-2.12;100.00
3122;BME280;1571;52.524;14.104;2024-01-16T06:28:53;99891.19;;;-2.34;100.00
3122;BME280;1571;52.524;14.104;2024-01-16T06:31:21;99903.69;;;-2.51;100.00
3122;BME280;1571;52.524;14.104;2024-01-16T06:33:50;99898.06;;;-2.33;100.00
3122;BME280;1571;52.524;14.104;2024-01-16T06:36:19;99905.59;;;-2.20;100.00
3122;BME280;1571;52.524;14.104;2024-01-16T06:38:47;99906.25;;;-2.12;100.00
3122;BME280;1571;52.524;14.104;2024-01-16T06:41:15;99910.00;;;-2.22;100.00
3122;BME280;1571;52.524;14.104;2024-01-16T06:43:45;99912.63;;;-2.25;100.00
3122;BME280;1571;52.524;14.104;2024-01-16T06:46:13;99915.81;;;-2.13;100.00
3122;BME280;1571;52.524;14.104;2024-01-16T06:48:42;99929.47;;;-2.40;100.00
3122;BME280;1571;52.524;14.104;2024-01-16T06:51:11;99921.13;;;-2.17;100.00
3122;BME280;1571;52.524;14.104;2024-01-16T06:53:41;99936.50;;;-2.08;100.00
3122;BME280;1571;52.524;14.104;2024-01-16T06:56:09;99951.81;;;-2.32;100.00
3122;BME280;1571;52.524;14.104;2024-01-16T06:58:37;99949.31;;;-2.36;100.00
3122;BME280;1571;52.524;14.104;2024-01-16T07:01:08;99939.59;;;-1.92;100.00
3122;BME280;1571;52.524;14.104;2024-01-16T07:03:37;99950.03;;;-1.94;100.00
3122;BME280;1571;52.524;14.104;2024-01-16T07:06:05;99955.06;;;-1.84;100.00
3122;BME280;1571;52.524;14.104;2024-01-16T07:08:34;99962.16;;;-1.93;100.00
3122;BME280;1571;52.524;14.104;2024-01-16T07:11:03;99959.25;;;-1.80;100.00
3122;BME280;1571;52.524;14.104;2024-01-16T07:13:34;99964.53;;;-1.82;100.00
3122;BME280;1571;52.524;14.104;2024-01-16T07:16:03;99973.16;;;-1.80;100.00
3122;BME280;1571;52.524;14.104;2024-01-16T07:18:32;99977.31;;;-2.10;100.00
3122;BME280;1571;52.524;14.104;2024-01-16T07:21:01;99963.63;;;-1.81;100.00
3122;BME280;1571;52.524;14.104;2024-01-16T07:23:30;99971.19;;;-1.72;100.00
3122;BME280;1571;52.524;14.104;2024-01-16T07:25:58;99977.22;;;-1.70;100.00
3122;BME280;1571;52.524;14.104;2024-01-16T07:28:29;99970.47;;;-1.77;100.00
3122;BME280;1571;52.524;14.104;2024-01-16T07:30:57;99984.47;;;-1.82;100.00
3122;BME280;1571;52.524;14.104;2024-01-16T07:33:26;99985.34;;;-1.82;100.00
3122;BME280;1571;52.524;14.104;2024-01-16T07:35:56;99994.06;;;-1.84;100.00
3122;BME280;1571;52.524;14.104;2024-01-16T07:38:24;99986.06;;;-1.75;100.00
3122;BME280;1571;52.524;14.104;2024-01-16T07:40:52;99993.56;;;-1.63;100.00
3122;BME280;1571;52.524;14.104;2024-01-16T07:43:21;99987.34;;;-1.57;100.00
3122;BME280;1571;52.524;14.104;2024-01-16T07:45:48;99994.50;;;-1.67;100.00
3122;BME280;1571;52.524;14.104;2024-01-16T07:48:16;99999.56;;;-1.61;100.00
3122;BME280;1571;52.524;14.104;2024-01-16T07:50:45;99996.88;;;-1.58;100.00
3122;BME280;1571;52.524;14.104;2024-01-16T07:53:15;100000.25;;;-1.53;100.00
3122;BME280;1571;52.524;14.104;2024-01-16T07:55:43;100012.69;;;-1.64;100.00
3122;BME280;1571;52.524;14.104;2024-01-16T07:58:12;100016.63;;;-1.49;100.00
3122;BME280;1571;52.524;14.104;2024-01-16T08:00:41;100019.13;;;-1.44;100.00
3122;BME280;1571;52.524;14.104;2024-01-16T08:03:09;100022.88;;;-1.55;100.00
3122;BME280;1571;52.524;14.104;2024-01-16T08:05:39;100015.91;;;-1.54;100.00
3122;BME280;1571;52.524;14.104;2024-01-16T08:08:08;100026.56;;;-1.65;100.00
3122;BME280;1571;52.524;14.104;2024-01-16T08:10:40;100018.63;;;-1.60;100.00
3122;BME280;1571;52.524;14.104;2024-01-16T08:13:09;100028.56;;;-1.76;100.00
3122;BME280;1571;52.524;14.104;2024-01-16T08:15:37;100017.56;;;-1.52;100.00
3122;BME280;1571;52.524;14.104;2024-01-16T08:18:05;100034.22;;;-1.57;100.00
3122;BME280;1571;52.524;14.104;2024-01-16T08:20:34;100027.34;;;-1.60;100.00
3122;BME280;1571;52.524;14.104;2024-01-16T08:23:03;100033.28;;;-1.55;100.00
3122;BME280;1571;52.524;14.104;2024-01-16T08:25:31;100034.97;;;-1.19;100.00
3122;BME280;1571;52.524;14.104;2024-01-16T08:28:00;100033.53;;;-1.30;100.00
3122;BME280;1571;52.524;14.104;2024-01-16T08:30:29;100040.97;;;-1.16;100.00
3122;BME280;1571;52.524;14.104;2024-01-16T08:32:57;100043.50;;;-1.13;100.00
3122;BME280;1571;52.524;14.104;2024-01-16T08:35:25;100039.44;;;-1.23;100.00
3122;BME280;1571;52.524;14.104;2024-01-16T08:37:54;100048.69;;;-1.11;100.00
3122;BME280;1571;52.524;14.104;2024-01-16T08:40:22;100037.97;;;-0.99;99.99
3122;BME280;1571;52.524;14.104;2024-01-16T08:42:51;100047.69;;;-1.06;99.79
3122;BME280;1571;52.524;14.104;2024-01-16T08:45:25;100049.72;;;-1.17;99.88
3122;BME280;1571;52.524;14.104;2024-01-16T08:47:54;100046.63;;;-0.98;99.81
3122;BME280;1571;52.524;14.104;2024-01-16T08:50:23;100041.44;;;-1.00;99.23
3122;BME280;1571;52.524;14.104;2024-01-16T08:52:52;100048.53;;;-1.05;99.23
3122;BME280;1571;52.524;14.104;2024-01-16T08:55:20;100049.44;;;-0.73;98.95
3122;BME280;1571;52.524;14.104;2024-01-16T08:57:49;100050.03;;;-0.64;98.54
3122;BME280;1571;52.524;14.104;2024-01-16T09:00:17;100041.47;;;-0.69;98.38
3122;BME280;1571;52.524;14.104;2024-01-16T09:02:47;100047.94;;;-0.51;97.89
3122;BME280;1571;52.524;14.104;2024-01-16T09:05:15;100053.53;;;-0.65;97.62
3122;BME280;1571;52.524;14.104;2024-01-16T09:07:44;100048.31;;;-0.65;97.66
3122;BME280;1571;52.524;14.104;2024-01-16T09:10:12;100062.88;;;-0.56;97.57
3122;BME280;1571;52.524;14.104;2024-01-16T09:12:40;100057.00;;;-0.64;97.77
3122;BME280;1571;52.524;14.104;2024-01-16T09:15:09;100053.59;;;-0.99;97.95
3122;BME280;1571;52.524;14.104;2024-01-16T09:17:38;100061.09;;;-0.88;97.95
3122;BME280;1571;52.524;14.104;2024-01-16T09:20:09;100069.03;;;-0.58;97.67
3122;BME280;1571;52.524;14.104;2024-01-16T09:22:38;100063.31;;;-0.42;97.22
3122;BME280;1571;52.524;14.104;2024-01-16T09:25:07;100066.56;;;-0.65;97.24
3122;BME280;1571;52.524;14.104;2024-01-16T09:27:35;100062.09;;;-0.59;97.35
3122;BME280;1571;52.524;14.104;2024-01-16T09:30:04;100060.19;;;-0.54;96.83
3122;BME280;1571;52.524;14.104;2024-01-16T09:32:35;100065.25;;;-0.48;96.67
3122;BME280;1571;52.524;14.104;2024-01-16T09:35:05;100066.59;;;-0.66;97.14
3122;BME280;1571;52.524;14.104;2024-01-16T09:37:37;100068.56;;;-0.43;96.85
3122;BME280;1571;52.524;14.104;2024-01-16T09:40:07;100074.59;;;-0.41;96.86
3122;BME280;1571;52.524;14.104;2024-01-16T09:42:36;100074.19;;;-0.26;96.57
3122;BME280;1571;52.524;14.104;2024-01-16T09:45:05;100075.69;;;-0.48;96.85
3122;BME280;1571;52.524;14.104;2024-01-16T09:47:34;100062.88;;;-0.56;97.05
3122;BME280;1571;52.524;14.104;2024-01-16T09:50:03;100075.00;;;-0.55;97.26
3122;BME280;1571;52.524;14.104;2024-01-16T09:52:31;100079.75;;;-0.38;97.31
3122;BME280;1571;52.524;14.104;2024-01-16T09:55:01;100081.97;;;-0.55;97.39
3122;BME280;1571;52.524;14.104;2024-01-16T09:57:29;100088.25;;;-0.63;97.08
3122;BME280;1571;52.524;14.104;2024-01-16T09:59:59;100094.56;;;-0.71;97.64
3122;BME280;1571;52.524;14.104;2024-01-16T10:02:32;100089.88;;;-0.58;97.97
3122;BME280;1571;52.524;14.104;2024-01-16T10:05:01;100089.88;;;-0.58;97.83
3122;BME280;1571;52.524;14.104;2024-01-16T10:07:30;100091.09;;;-0.72;97.98
3122;BME280;1571;52.524;14.104;2024-01-16T10:10:02;100102.25;;;-0.67;98.19
3122;BME280;1571;52.524;14.104;2024-01-16T10:12:31;100090.97;;;-0.67;98.10
3122;BME280;1571;52.524;14.104;2024-01-16T10:14:59;100088.31;;;-0.66;98.17
3122;BME280;1571;52.524;14.104;2024-01-16T10:17:38;100078.78;;;-0.67;97.96
3122;BME280;1571;52.524;14.104;2024-01-16T10:20:08;100085.00;;;-0.39;97.98
3122;BME280;1571;52.524;14.104;2024-01-16T10:22:41;100083.13;;;-0.34;97.33
3122;BME280;1571;52.524;14.104;2024-01-16T10:25:12;100087.13;;;-0.23;97.03
3122;BME280;1571;52.524;14.104;2024-01-16T10:27:44;100076.13;;;-0.34;97.13
3122;BME280;1571;52.524;14.104;2024-01-16T10:30:13;100072.34;;;-0.22;97.14
3122;BME280;1571;52.524;14.104;2024-01-16T10:32:43;100077.75;;;0.02;96.82
3122;BME280;1571;52.524;14.104;2024-01-16T10:35:13;100091.34;;;-0.18;96.31
3122;BME280;1571;52.524;14.104;2024-01-16T10:37:43;100085.16;;;-0.14;96.24
3122;BME280;1571;52.524;14.104;2024-01-16T10:40:16;100086.69;;;-0.07;96.31
3122;BME280;1571;52.524;14.104;2024-01-16T10:42:58;100085.84;;;-0.08;96.32
3122;BME280;1571;52.524;14.104;2024-01-16T10:45:27;100087.91;;;-0.19;96.24
3122;BME280;1571;52.524;14.104;2024-01-16T10:48:03;100084.88;;;-0.05;96.34
3122;BME280;1571;52.524;14.104;2024-01-16T10:50:33;100087.06;;;0.10;96.15
3122;BME280;1571;52.524;14.104;2024-01-16T10:53:04;100091.13;;;0.20;95.57
3122;BME280;1571;52.524;14.104;2024-01-16T10:55:39;100094.72;;;0.16;95.75
3122;BME280;1571;52.524;14.104;2024-01-16T10:58:12;100089.91;;;0.03;95.55
3122;BME280;1571;52.524;14.104;2024-01-16T11:00:43;100085.13;;;0.17;95.54
3122;BME280;1571;52.524;14.104;2024-01-16T11:03:18;100084.09;;;0.23;95.59
3122;BME280;1571;52.524;14.104;2024-01-16T11:05:47;100085.41;;;0.36;95.28
3122;BME280;1571;52.524;14.104;2024-01-16T11:08:16;100076.50;;;0.43;95.00
3122;BME280;1571;52.524;14.104;2024-01-16T11:10:47;100079.31;;;0.35;95.19
3122;BME280;1571;52.524;14.104;2024-01-16T11:13:18;100075.50;;;0.74;94.59
3122;BME280;1571;52.524;14.104;2024-01-16T11:15:47;100071.34;;;0.68;94.24
3122;BME280;1571;52.524;14.104;2024-01-16T11:18:17;100079.84;;;0.75;93.87
3122;BME280;1571;52.524;14.104;2024-01-16T11:20:47;100072.00;;;1.01;93.21
3122;BME280;1571;52.524;14.104;2024-01-16T11:23:32;100075.19;;;0.83;93.15
3122;BME280;1571;52.524;14.104;2024-01-16T11:26:27;100069.31;;;0.76;93.29
3122;BME280;1571;52.524;14.104;2024-01-16T11:28:58;100066.78;;;0.75;93.15
3122;BME280;1571;52.524;14.104;2024-01-16T11:31:28;100063.53;;;0.93;93.32
3122;BME280;1571;52.524;14.104;2024-01-16T11:33:57;100063.34;;;0.73;93.10
3122;BME280;1571;52.524;14.104;2024-01-16T11:36:49;100056.53;;;0.94;93.58
3122;BME280;1571;52.524;14.104;2024-01-16T11:39:23;100052.97;;;0.96;93.00
3122;BME280;1571;52.524;14.104;2024-01-16T11:41:55;100057.19;;;1.00;92.62
3122;BME280;1571;52.524;14.104;2024-01-16T11:44:41;100049.50;;;0.96;92.60
3122;BME280;1571;52.524;14.104;2024-01-16T11:47:09;100053.03;;;0.95;92.40
3122;BME280;1571;52.524;14.104;2024-01-16T11:49:39;100046.25;;;0.89;93.14
3122;BME280;1571;52.524;14.104;2024-01-16T11:52:08;100049.72;;;1.15;93.07
3122;BME280;1571;52.524;14.104;2024-01-16T11:54:38;100037.56;;;1.14;92.55
3122;BME280;1571;52.524;14.104;2024-01-16T11:57:26;100043.75;;;0.86;92.93
3122;BME280;1571;52.524;14.104;2024-01-16T11:59:59;100035.56;;;1.22;92.94
3122;BME280;1571;52.524;14.104;2024-01-16T12:02:49;100034.91;;;0.90;92.40
3122;BME280;1571;52.524;14.104;2024-01-16T12:05:19;100034.66;;;0.71;92.65
3122;BME280;1571;52.524;14.104;2024-01-16T12:07:48;100037.28;;;0.96;93.24
3122;BME280;1571;52.524;14.104;2024-01-16T12:10:18;100033.19;;;0.89;93.39
3122;BME280;1571;52.524;14.104;2024-01-16T12:12:49;100024.94;;;1.01;93.45
3122;BME280;1571;52.524;14.104;2024-01-16T12:15:19;100031.34;;;0.93;93.52
3122;BME280;1571;52.524;14.104;2024-01-16T12:17:55;100031.97;;;0.99;93.75
3122;BME280;1571;52.524;14.104;2024-01-16T12:20:25;100032.13;;;0.95;93.77
3122;BME280;1571;52.524;14.104;2024-01-16T12:22:56;100030.03;;;0.79;93.98
3122;BME280;1571;52.524;14.104;2024-01-16T12:25:25;100037.56;;;0.89;94.68
3122;BME280;1571;52.524;14.104;2024-01-16T12:28:15;100039.19;;;0.93;94.58
3122;BME280;1571;52.524;14.104;2024-01-16T12:30:59;100029.44;;;0.96;94.50
3122;BME280;1571;52.524;14.104;2024-01-16T12:33:29;100035.44;;;1.00;94.80
3122;BME280;1571;52.524;14.104;2024-01-16T12:36:03;100034.59;;;0.99;94.95
3122;BME280;1571;52.524;14.104;2024-01-16T12:38:33;100027.63;;;0.73;95.49
3122;BME280;1571;52.524;14.104;2024-01-16T12:41:05;100026.16;;;0.65;96.25
3122;BME280;1571;52.524;14.104;2024-01-16T12:43:37;100016.66;;;1.14;96.32
3122;BME280;1571;52.524;14.104;2024-01-16T12:46:06;100022.56;;;1.19;96.10
3122;BME280;1571;52.524;14.104;2024-01-16T12:48:35;100016.53;;;1.17;95.87
3122;BME280;1571;52.524;14.104;2024-01-16T12:51:07;100012.81;;;1.24;95.88
3122;BME280;1571;52.524;14.104;2024-01-16T12:53:37;100006.16;;;1.39;95.39
3122;BME280;1571;52.524;14.104;2024-01-16T12:56:07;100002.13;;;1.30;95.19
3122;BME280;1571;52.524;14.104;2024-01-16T12:58:38;100002.53;;;1.43;94.91
3122;BME280;1571;52.524;14.104;2024-01-16T13:01:24;100001.28;;;1.30;95.14
3122;BME280;1571;52.524;14.104;2024-01-16T13:04:06;100010.22;;;1.24;95.44
3122;BME280;1571;52.524;14.104;2024-01-16T13:06:35;100017.00;;;1.28;95.89
3122;BME280;1571;52.524;14.104;2024-01-16T13:09:05;100001.19;;;1.08;96.34
3122;BME280;1571;52.524;14.104;2024-01-16T13:11:48;100000.84;;;1.17;96.36
3122;BME280;1571;52.524;14.104;2024-01-16T13:14:19;100000.16;;;1.12;96.58
3122;BME280;1571;52.524;14.104;2024-01-16T13:16:50;100010.50;;;1.15;96.97
3122;BME280;1571;52.524;14.104;2024-01-16T13:19:18;99999.56;;;1.03;97.50